Time;durP1;ratioP1;P1;durP2;ratioP2;P2;SDS_P1;SDS_P2;PMS_P1;PMS_P2;Temp;Humidity;BMP_temperature;BMP_pressure;BME280_temperature;BME280_humidity;BME280_pressure;Samples;Min_cycle;Max_cycle;Signal;HPM_P1;HPM_P2
2023/01/28 00:02:30;;;;;;;11.40;10.20;;;;;;;2.63;100.00;102804.50;5263025;28;20129;-77
2023/01/28 00:05:02;;;;;;;11.53;9.57;;;;;;;2.73;100.00;102799.38;5263216;28;20040;-75
2023/01/28 00:07:34;;;;;;;11.57;9.83;;;;;;;2.86;100.00;102795.97;5267690;28;20087;-77
2023/01/28 00:10:05;;;;;;;11.47;10.27;;;;;;;2.57;100.00;102791.53;5247712;28;20089;-73
2023/01/28 00:12:37;;;;;;;12.17;10.87;;;;;;;2.68;100.00;102806.22;5230706;28;20036;-75
2023/01/28 00:15:09;;;;;;;10.93;9.83;;;;;;;2.44;100.00;102781.97;5260399;28;20017;-77
2023/01/28 00:17:40;;;;;;;11.40;10.10;;;;;;;2.81;100.00;102789.06;5271579;28;20033;-75
2023/01/28 00:20:12;;;;;;;11.53;10.33;;;;;;;2.62;100.00;102807.94;5253965;28;20028;-76
2023/01/28 00:22:47;;;;;;;11.63;10.17;;;;;;;2.76;100.00;102804.53;5256201;28;20035;-77
2023/01/28 00:25:19;;;;;;;12.37;10.30;;;;;;;2.65;100.00;102807.94;5272700;28;20047;-76
2023/01/28 00:27:51;;;;;;;12.03;9.90;;;;;;;2.68;100.00;102812.28;5255376;28;20028;-77
2023/01/28 00:30:22;;;;;;;11.57;10.23;;;;;;;2.80;100.00;102813.19;5275228;28;20082;-76
2023/01/28 00:32:54;;;;;;;13.20;10.87;;;;;;;2.81;100.00;102807.19;5275486;28;20032;-76
2023/01/28 00:35:25;;;;;;;12.17;10.33;;;;;;;2.41;100.00;102794.03;5274595;28;20706;-76
2023/01/28 00:37:57;;;;;;;12.67;10.90;;;;;;;2.55;100.00;102816.50;5274090;28;20036;-77
2023/01/28 00:40:29;;;;;;;14.07;11.83;;;;;;;2.80;100.00;102819.25;5275361;28;20469;-77
2023/01/28 00:43:00;;;;;;;13.00;10.57;;;;;;;2.65;100.00;102813.13;5274080;28;20021;-77
2023/01/28 00:45:31;;;;;;;14.07;11.47;;;;;;;2.76;100.00;102820.94;5275584;28;20020;-76
2023/01/28 00:48:03;;;;;;;13.10;10.53;;;;;;;2.80;100.00;102806.31;5256357;28;20077;-77
2023/01/28 00:50:35;;;;;;;12.67;10.53;;;;;;;2.97;100.00;102818.44;5274660;28;20032;-77
2023/01/28 00:53:06;;;;;;;13.80;10.37;;;;;;;3.02;100.00;102803.78;5274557;28;20087;-77
2023/01/28 00:55:38;;;;;;;12.70;10.60;;;;;;;2.88;100.00;102820.13;5274900;28;20114;-77
2023/01/28 00:58:09;;;;;;;12.27;10.50;;;;;;;2.74;100.00;102827.81;5274403;28;20457;-77
2023/01/28 01:00:40;;;;;;;14.27;11.50;;;;;;;2.64;100.00;102821.75;5274976;28;20112;-78
2023/01/28 01:03:12;;;;;;;12.70;11.17;;;;;;;2.85;100.00;102825.31;5274064;28;20033;-78
2023/01/28 01:05:44;;;;;;;12.60;10.83;;;;;;;2.98;100.00;102827.97;5274005;28;20024;-77
2023/01/28 01:08:15;;;;;;;13.30;11.60;;;;;;;2.77;100.00;102834.75;5274722;28;20111;-79
2023/01/28 01:10:46;;;;;;;12.00;10.70;;;;;;;2.60;100.00;102821.72;5274147;28;20487;-79
2023/01/28 01:13:18;;;;;;;11.80;10.27;;;;;;;2.56;100.00;102823.44;5274778;28;20040;-78
2023/01/28 01:15:49;;;;;;;12.07;10.67;;;;;;;2.89;100.00;102827.06;5273807;28;20016;-79
2023/01/28 01:18:20;;;;;;;14.73;11.10;;;;;;;2.77;100.00;102814.06;5273694;28;20028;-79
2023/01/28 01:20:57;;;;;;;12.50;10.53;;;;;;;2.89;100.00;102819.28;5272655;28;20059;-74
2023/01/28 01:23:30;;;;;;;11.97;10.77;;;;;;;3.05;100.00;102827.13;5274568;28;20020;-75
2023/01/28 01:26:03;;;;;;;14.57;11.33;;;;;;;2.99;100.00;102825.38;5273984;28;20395;-73
2023/01/28 01:28:34;;;;;;;11.80;10.27;;;;;;;2.82;100.00;102824.41;5274254;28;20075;-75
2023/01/28 01:31:14;;;;;;;11.13;9.13;;;;;;;3.01;100.00;102815.03;5273735;28;20040;-75
2023/01/28 01:33:48;;;;;;;12.87;10.93;;;;;;;2.94;100.00;102819.31;5273740;28;20033;-75
2023/01/28 01:36:20;;;;;;;11.60;10.40;;;;;;;2.96;100.00;102825.38;5272938;28;20028;-76
2023/01/28 01:38:53;;;;;;;12.90;10.67;;;;;;;2.87;100.00;102823.59;5273528;28;20024;-76
2023/01/28 01:41:30;;;;;;;14.17;11.87;;;;;;;2.83;100.00;102814.06;5273605;28;20099;-74
2023/01/28 01:44:03;;;;;;;13.40;11.33;;;;;;;3.00;100.00;102818.47;5273426;28;20028;-75
2023/01/28 01:46:44;;;;;;;13.23;11.27;;;;;;;2.98;100.00;102817.59;5272468;28;20104;-74
2023/01/28 01:49:27;;;;;;;13.07;11.43;;;;;;;2.94;100.00;102821.91;5272574;28;20067;-74
2023/01/28 01:52:17;;;;;;;13.33;11.70;;;;;;;3.06;100.00;102822.78;5272672;28;20107;-74
2023/01/28 01:54:53;;;;;;;13.10;10.73;;;;;;;2.69;100.00;102826.09;5272677;28;20024;-74
2023/01/28 01:57:33;;;;;;;14.03;11.50;;;;;;;2.82;100.00;102825.28;5272978;28;20043;-75
2023/01/28 02:00:07;;;;;;;13.23;11.60;;;;;;;2.98;100.00;102825.38;5271803;28;20574;-76
2023/01/28 02:02:42;;;;;;;11.93;10.35;;;;;;;3.08;100.00;102827.13;5273086;28;20386;-77
2023/01/28 02:05:16;;;;;;;12.23;10.67;;;;;;;2.85;100.00;102825.31;5253626;28;20482;-75
2023/01/28 02:07:50;;;;;;;14.30;11.35;;;;;;;3.04;100.00;102827.13;5272951;28;20033;-75
2023/01/28 02:10:23;;;;;;;14.25;11.52;;;;;;;2.72;100.00;102828.69;5272233;28;20537;-75
2023/01/28 02:12:57;;;;;;;13.90;11.77;;;;;;;2.51;100.00;102807.03;5272652;28;20521;-75
2023/01/28 02:15:28;;;;;;;15.13;11.60;;;;;;;2.75;100.00;102837.34;5188924;22;20055;-76
2023/01/28 02:18:00;;;;;;;14.77;12.00;;;;;;;2.72;100.00;102828.69;5126372;28;20044;-77
2023/01/28 02:20:57;;;;;;;13.00;10.90;;;;;;;2.99;100.00;102837.44;5126350;28;20061;-74
2023/01/28 02:23:45;;;;;;;14.20;11.70;;;;;;;3.06;100.00;102838.31;5128013;29;20031;-73
2023/01/28 02:26:47;;;;;;;13.80;11.00;;;;;;;3.07;100.00;102827.97;5127700;28;20114;-74
2023/01/28 02:29:29;;;;;;;12.37;10.73;;;;;;;2.72;100.00;102829.56;5127225;28;20071;-74
2023/01/28 02:32:00;;;;;;;15.17;12.60;;;;;;;2.93;100.00;102829.66;5127203;29;20035;-73
2023/01/28 02:34:46;;;;;;;13.80;11.67;;;;;;;2.76;100.00;102835.59;5126114;29;20062;-73
2023/01/28 02:37:33;;;;;;;13.67;11.57;;;;;;;2.85;100.00;102824.44;5135609;28;20085;-76
2023/01/28 02:40:10;;;;;;;12.20;10.53;;;;;;;2.97;100.00;102821.91;5122290;29;20036;-75
2023/01/28 02:42:41;;;;;;;13.03;10.87;;;;;;;2.93;100.00;102811.53;5122943;28;20044;-75
2023/01/28 02:45:24;;;;;;;12.57;11.10;;;;;;;2.97;100.00;102828.78;5127950;28;20911;-75
2023/01/28 02:47:58;;;;;;;11.67;10.20;;;;;;;3.01;100.00;102815.91;5127542;28;20032;-73
2023/01/28 02:50:48;;;;;;;12.73;10.32;;;;;;;2.97;100.00;102823.63;5124507;28;20559;-74
2023/01/28 02:53:45;;;;;;;12.30;10.83;;;;;;;2.92;100.00;102820.16;5126746;29;20122;-76
2023/01/28 02:56:37;;;;;;;11.67;10.17;;;;;;;2.85;100.00;102840.84;5122706;29;20111;-76
2023/01/28 02:59:34;;;;;;;11.27;10.07;;;;;;;3.04;100.00;102835.72;5121482;29;20036;-74
2023/01/28 03:02:22;;;;;;;12.77;10.97;;;;;;;3.08;100.00;102837.50;5129146;28;20031;-75
2023/01/28 03:04:56;;;;;;;13.67;10.53;;;;;;;3.08;100.00;102842.66;5128244;29;20059;-74
2023/01/28 03:07:31;;;;;;;12.13;10.70;;;;;;;2.94;100.00;102841.72;5129971;29;20086;-75
2023/01/28 03:10:06;;;;;;;12.80;10.00;;;;;;;2.99;100.00;102840.03;5130749;28;20078;-75
2023/01/28 03:36:48;;;;;;;12.73;9.87;;;;;;;2.91;100.00;102850.38;5129119;29;20044;-76
2023/01/28 03:39:27;;;;;;;11.30;9.43;;;;;;;2.97;100.00;102837.44;5127576;28;20047;-76
2023/01/28 03:42:02;;;;;;;11.47;9.70;;;;;;;2.79;100.00;102851.16;5129006;29;20074;-76
2023/01/28 03:44:50;;;;;;;10.77;9.37;;;;;;;2.85;100.00;102846.00;5131302;28;20024;-76
2023/01/28 03:47:26;;;;;;;10.63;9.43;;;;;;;2.98;100.00;102851.25;5131773;29;20106;-76
2023/01/28 03:49:58;;;;;;;10.00;8.83;;;;;;;2.89;100.00;102849.47;5129762;29;20043;-77
2023/01/28 03:52:31;;;;;;;12.53;9.47;;;;;;;2.72;100.00;102826.09;5131426;29;20032;-77
2023/01/28 03:55:12;;;;;;;10.80;9.30;;;;;;;2.78;100.00;102846.81;5131156;28;20028;-76
2023/01/28 03:57:44;;;;;;;11.87;10.07;;;;;;;2.60;100.00;102838.09;5129527;28;20050;-76
2023/01/28 04:00:16;;;;;;;10.03;8.90;;;;;;;2.72;100.00;102828.69;5131516;28;20162;-75
2023/01/28 04:02:48;;;;;;;9.73;8.70;;;;;;;2.79;100.00;102856.34;5130447;29;20028;-76
2023/01/28 04:05:19;;;;;;;10.10;8.97;;;;;;;2.90;100.00;102858.97;5126129;29;20032;-76
2023/01/28 04:07:54;;;;;;;10.13;9.13;;;;;;;2.93;100.00;102858.13;5129417;28;20036;-75
2023/01/28 04:10:26;;;;;;;9.50;8.00;;;;;;;2.85;100.00;102866.72;5129180;29;20035;-76
2023/01/28 04:12:57;;;;;;;10.50;8.90;;;;;;;2.89;100.00;102868.47;5129137;29;20562;-73
2023/01/28 04:15:29;;;;;;;11.53;9.70;;;;;;;2.94;100.00;102865.91;5129043;28;20052;-75
2023/01/28 04:18:01;;;;;;;11.07;9.87;;;;;;;2.95;100.00;102859.84;5129285;28;20622;-76
2023/01/28 04:20:32;;;;;;;13.77;10.07;;;;;;;2.74;100.00;102874.41;5124782;28;20038;-76
2023/01/28 04:23:04;;;;;;;11.97;10.33;;;;;;;2.78;100.00;102880.47;5119825;29;20036;-75
2023/01/28 04:25:35;;;;;;;12.43;10.20;;;;;;;2.58;100.00;102860.53;5127361;29;20023;-75
2023/01/28 04:28:06;;;;;;;12.93;11.17;;;;;;;2.85;100.00;102877.06;5127899;29;20040;-75
2023/01/28 04:30:37;;;;;;;11.27;10.07;;;;;;;2.44;100.00;102862.16;5120221;28;20048;-75
2023/01/28 04:33:10;;;;;;;14.00;11.50;;;;;;;2.78;100.00;102865.81;5129623;29;20097;-76
2023/01/28 04:35:41;;;;;;;13.57;11.17;;;;;;;2.94;100.00;102871.06;5128154;29;20039;-75
2023/01/28 04:38:13;;;;;;;12.43;11.13;;;;;;;2.53;100.00;102864.81;5121164;29;20040;-75
2023/01/28 04:40:47;;;;;;;14.00;10.77;;;;;;;2.37;100.00;102856.94;5127882;29;20462;-73
2023/01/28 04:43:19;;;;;;;;;;;;;;;2.83;100.00;102873.59;5128361;28;20040;-74
2023/01/28 04:45:50;;;;;;;13.53;11.03;;;;;;;2.61;100.00;102862.25;5129455;29;19945;-76
2023/01/28 04:48:21;;;;;;;12.00;10.37;;;;;;;2.68;100.00;102864.03;5126686;29;20379;-76
2023/01/28 04:50:53;;;;;;;13.20;11.43;;;;;;;2.69;100.00;102870.09;5127094;28;20127;-75
2023/01/28 04:53:24;;;;;;;13.60;12.17;;;;;;;2.77;100.00;102858.94;5121249;29;20070;-76
2023/01/28 04:55:56;;;;;;;14.83;12.60;;;;;;;2.72;100.00;102868.38;5129897;29;20028;-76
2023/01/28 04:58:27;;;;;;;13.97;11.47;;;;;;;2.83;100.00;102871.00;5130556;29;20089;-76
2023/01/28 05:00:59;;;;;;;14.60;12.30;;;;;;;2.74;100.00;102873.56;5128112;28;20612;-76
2023/01/28 05:03:30;;;;;;;13.90;11.90;;;;;;;2.85;100.00;102874.47;5130417;29;20114;-76
2023/01/28 05:06:01;;;;;;;14.37;11.83;;;;;;;2.58;100.00;102867.41;5128864;29;20485;-76
2023/01/28 05:08:33;;;;;;;13.00;11.00;;;;;;;2.69;100.00;102873.50;5129745;29;20493;-76
2023/01/28 05:11:04;;;;;;;14.10;12.13;;;;;;;2.47;100.00;102854.41;5144583;28;20166;-76
2023/01/28 05:13:35;;;;;;;14.07;11.47;;;;;;;2.55;100.00;102870.84;5130079;29;20040;-75
2023/01/28 05:16:07;;;;;;;14.43;12.10;;;;;;;2.64;100.00;102873.50;5129350;29;20103;-75
2023/01/28 05:18:38;;;;;;;11.00;9.80;;;;;;;2.74;100.00;102871.81;5129765;29;20042;-76
2023/01/28 05:21:09;;;;;;;13.00;10.97;;;;;;;2.73;100.00;102880.44;5127530;29;20040;-76
2023/01/28 05:23:40;;;;;;;13.13;11.73;;;;;;;2.77;100.00;102877.03;5130281;29;20098;-76
2023/01/28 05:26:12;;;;;;;13.40;12.00;;;;;;;2.74;100.00;102883.91;5127111;28;20074;-76
2023/01/28 05:28:43;;;;;;;14.00;11.83;;;;;;;2.68;100.00;102878.69;5123086;29;20040;-76
2023/01/28 05:31:14;;;;;;;13.80;11.60;;;;;;;2.68;100.00;102871.78;5124200;29;20459;-76
2023/01/28 05:33:46;;;;;;;13.57;11.63;;;;;;;2.63;100.00;102870.91;5127832;28;20115;-74
2023/01/28 05:36:17;;;;;;;15.30;12.43;;;;;;;2.79;100.00;102869.28;5128750;29;20036;-75
2023/01/28 05:38:49;;;;;;;16.30;12.43;;;;;;;2.75;100.00;102864.94;5124429;29;20403;-75
2023/01/28 05:41:20;;;;;;;13.93;11.60;;;;;;;2.76;100.00;102867.53;5122047;29;20516;-75
2023/01/28 05:43:51;;;;;;;13.27;11.10;;;;;;;2.70;100.00;102877.84;5127072;29;20098;-74
2023/01/28 05:46:24;;;;;;;14.27;12.20;;;;;;;2.76;100.00;102866.66;5128804;29;20043;-75
2023/01/28 05:48:55;;;;;;;13.60;11.30;;;;;;;2.60;100.00;102866.56;5125986;28;20031;-75
2023/01/28 05:51:26;;;;;;;12.67;10.83;;;;;;;2.70;100.00;102861.44;5118642;29;20352;-75
2023/01/28 05:53:57;;;;;;;13.87;11.53;;;;;;;2.69;100.00;102859.72;5112595;29;20046;-76
2023/01/28 05:56:29;;;;;;;12.77;10.93;;;;;;;2.59;100.00;102875.19;5128729;28;20097;-75
2023/01/28 05:59:00;;;;;;;13.20;10.60;;;;;;;2.50;100.00;102869.94;5127310;29;20042;-76
2023/01/28 06:01:32;;;;;;;13.30;10.37;;;;;;;2.71;100.00;102878.69;5127454;28;20090;-75
2023/01/28 06:04:03;;;;;;;12.63;11.00;;;;;;;2.69;100.00;102876.09;5142270;28;20123;-73
2023/01/28 06:06:34;;;;;;;12.40;10.77;;;;;;;2.72;100.00;102867.50;5128461;29;20035;-75
2023/01/28 06:09:06;;;;;;;12.47;10.97;;;;;;;2.57;100.00;102879.47;5128606;28;20046;-74
2023/01/28 06:11:37;;;;;;;11.77;10.17;;;;;;;2.53;100.00;102880.34;5124733;29;20547;-76
2023/01/28 06:14:08;;;;;;;10.73;9.60;;;;;;;2.53;100.00;102890.69;5127620;29;20506;-77
2023/01/28 06:16:39;;;;;;;12.00;10.33;;;;;;;2.73;100.00;102885.63;5129247;29;20067;-74
2023/01/28 06:19:11;;;;;;;10.40;9.30;;;;;;;2.52;100.00;102894.09;5125708;29;20066;-73
2023/01/28 06:21:42;;;;;;;9.50;8.40;;;;;;;2.60;100.00;102884.66;5126910;28;20062;-74
2023/01/28 06:24:13;;;;;;;10.23;9.10;;;;;;;2.50;100.00;102886.34;5128612;28;20031;-75
2023/01/28 06:26:45;;;;;;;9.77;8.47;;;;;;;2.58;100.00;102882.94;5127251;28;20098;-76
2023/01/28 06:29:16;;;;;;;9.77;8.50;;;;;;;2.65;100.00;102882.13;5128224;29;20032;-75
2023/01/28 06:31:47;;;;;;;11.70;9.50;;;;;;;2.63;100.00;102891.59;5127233;28;20094;-75
2023/01/28 06:34:19;;;;;;;10.90;9.10;;;;;;;2.69;100.00;102890.78;5130675;28;20078;-75
2023/01/28 06:36:52;;;;;;;11.20;9.17;;;;;;;2.66;100.00;102883.84;5132630;29;20024;-76
2023/01/28 06:39:23;;;;;;;11.57;9.23;;;;;;;2.25;100.00;102880.97;5124890;29;20036;-75
2023/01/28 06:41:54;;;;;;;10.67;9.47;;;;;;;2.41;100.00;102892.31;5128254;29;20363;-75
2023/01/28 06:44:25;;;;;;;10.17;8.63;;;;;;;2.07;100.00;102871.34;5131426;29;20122;-76
2023/01/28 06:46:57;;;;;;;10.70;9.13;;;;;;;2.01;100.00;102892.81;5130170;29;20035;-75
2023/01/28 06:49:28;;;;;;;11.17;9.60;;;;;;;2.39;100.00;102904.34;5129592;29;20038;-76
2023/01/28 06:51:59;;;;;;;12.13;9.97;;;;;;;2.27;100.00;102899.94;5131148;28;20046;-76
2023/01/28 06:54:31;;;;;;;12.33;9.77;;;;;;;2.15;100.00;102900.72;5130410;28;20036;-77
2023/01/28 06:57:02;;;;;;;12.63;10.60;;;;;;;2.42;100.00;102899.22;5116952;29;20027;-76
2023/01/28 06:59:33;;;;;;;11.47;10.20;;;;;;;2.25;100.00;102898.22;5130594;28;20028;-76
2023/01/28 07:02:04;;;;;;;13.23;11.07;;;;;;;2.36;100.00;102896.56;5132021;29;20032;-76
2023/01/28 07:04:36;;;;;;;13.70;10.70;;;;;;;2.42;100.00;102895.75;5127915;28;20012;-76
2023/01/28 07:07:07;;;;;;;11.77;10.20;;;;;;;2.12;100.00;102911.03;5131355;28;20086;-76
2023/01/28 07:09:38;;;;;;;14.20;9.77;;;;;;;2.11;100.00;102898.94;5129433;29;20043;-76
2023/01/28 07:12:09;;;;;;;12.20;10.30;;;;;;;2.34;100.00;102918.97;5130227;29;20089;-76
2023/01/28 07:14:41;;;;;;;12.20;10.17;;;;;;;2.23;100.00;102908.56;5129089;28;20051;-75
2023/01/28 07:17:12;;;;;;;12.03;10.50;;;;;;;2.22;100.00;102913.69;5131133;29;20077;-78
2023/01/28 07:19:43;;;;;;;13.47;11.43;;;;;;;1.95;100.00;102912.56;5127917;28;20027;-77
2023/01/28 07:22:15;;;;;;;14.13;11.13;;;;;;;2.12;100.00;102900.69;5130730;29;20050;-79
2023/01/28 07:24:46;;;;;;;17.50;12.10;;;;;;;2.18;100.00;102916.25;5129369;29;20061;-78
2023/01/28 07:27:17;;;;;;;13.40;11.20;;;;;;;2.27;100.00;102919.78;5130350;29;20040;-80
2023/01/28 07:29:48;;;;;;;12.63;10.70;;;;;;;2.34;100.00;102923.28;5129246;29;20071;-80
2023/01/28 07:32:20;;;;;;;15.17;11.17;;;;;;;2.38;100.00;102923.31;5129363;29;20267;-77
2023/01/28 07:34:51;;;;;;;13.23;11.07;;;;;;;2.15;100.00;102936.03;5127702;29;20085;-79
2023/01/28 07:37:22;;;;;;;13.43;10.87;;;;;;;2.33;100.00;102934.47;5129944;28;20031;-79
2023/01/28 07:39:54;;;;;;;13.77;11.57;;;;;;;2.34;100.00;102937.06;5129938;29;20038;-79
2023/01/28 07:42:25;;;;;;;12.60;11.17;;;;;;;2.33;100.00;102937.06;5130707;29;20067;-76
2023/01/28 07:44:56;;;;;;;12.67;10.60;;;;;;;2.41;100.00;102943.16;5129547;28;20036;-78
2023/01/28 07:47:27;;;;;;;13.47;11.10;;;;;;;2.12;100.00;102926.53;5130793;29;20031;-78
2023/01/28 07:49:59;;;;;;;13.73;11.83;;;;;;;2.25;100.00;102934.41;5126543;28;20192;-78
2023/01/28 07:52:30;;;;;;;13.97;10.77;;;;;;;2.13;100.00;102932.59;5130049;29;20113;-77
2023/01/28 07:55:02;;;;;;;13.73;11.60;;;;;;;2.29;100.00;102938.75;5130414;29;20067;-77
2023/01/28 07:57:33;;;;;;;12.53;11.03;;;;;;;2.17;100.00;102945.53;5127339;28;20031;-76
2023/01/28 08:00:05;;;;;;;13.73;11.33;;;;;;;2.21;100.00;102958.50;5127850;29;20109;-78
2023/01/28 08:02:36;;;;;;;12.97;10.60;;;;;;;2.27;100.00;102961.16;5129344;29;20035;-76
2023/01/28 08:05:07;;;;;;;13.40;11.07;;;;;;;2.20;100.00;102936.94;5121154;28;20039;-78
2023/01/28 08:07:39;;;;;;;14.87;11.47;;;;;;;2.20;100.00;102955.03;5142544;28;20115;-74
2023/01/28 08:10:11;;;;;;;13.60;11.43;;;;;;;2.25;100.00;102958.53;5130057;28;20506;-77
2023/01/28 08:12:54;;;;;;;14.13;11.90;;;;;;;2.40;100.00;102950.06;5130266;29;20188;-77
2023/01/28 08:15:26;;;;;;;13.10;10.93;;;;;;;2.40;100.00;102963.00;5129331;29;20098;-78
2023/01/28 08:17:58;;;;;;;19.27;11.53;;;;;;;2.38;100.00;102967.28;5129067;29;20032;-74
2023/01/28 08:20:30;;;;;;;13.83;11.03;;;;;;;2.49;100.00;102969.09;5128555;29;20047;-80
2023/01/28 08:23:11;;;;;;;12.57;10.93;;;;;;;2.39;100.00;102971.59;5129214;29;20082;-74
2023/01/28 08:25:43;;;;;;;12.50;10.67;;;;;;;2.35;100.00;102987.94;5127819;29;20041;-76
2023/01/28 08:28:15;;;;;;;13.57;11.87;;;;;;;2.13;100.00;102994.63;5127494;29;20024;-77
2023/01/28 08:30:47;;;;;;;14.07;11.20;;;;;;;2.20;100.00;102982.63;5126756;29;20051;-78
2023/01/28 08:33:19;;;;;;;14.20;11.53;;;;;;;2.23;100.00;102980.06;5127056;29;20119;-75
2023/01/28 08:35:50;;;;;;;13.50;11.63;;;;;;;2.32;100.00;102985.34;5128961;29;20094;-75
2023/01/28 08:38:22;;;;;;;14.90;12.17;;;;;;;2.07;100.00;102981.63;5128213;28;20036;-77
2023/01/28 08:40:55;;;;;;;12.67;11.10;;;;;;;1.97;100.00;102980.66;5129219;28;20699;-75
2023/01/28 08:43:26;;;;;;;13.50;11.50;;;;;;;2.02;100.00;102992.81;5129242;29;20023;-78
2023/01/28 08:45:57;;;;;;;12.93;11.03;;;;;;;1.90;100.00;103008.16;5128079;29;20097;-73
2023/01/28 08:48:28;;;;;;;12.00;10.40;;;;;;;2.11;100.00;102988.56;5126927;29;20071;-78
2023/01/28 08:51:00;;;;;;;13.73;10.90;;;;;;;2.08;100.00;102986.81;5126507;28;20050;-77
2023/01/28 08:53:31;;;;;;;12.87;10.80;;;;;;;1.91;100.00;103009.88;5130468;29;20086;-73
2023/01/28 08:56:02;;;;;;;15.13;12.00;;;;;;;1.95;100.00;102985.81;5124288;29;20024;-75
2023/01/28 08:58:34;;;;;;;14.03;11.73;;;;;;;2.27;100.00;102999.94;5130599;28;20027;-79
2023/01/28 09:01:05;;;;;;;14.10;11.63;;;;;;;2.02;100.00;103013.47;5125029;29;20039;-77
2023/01/28 09:03:37;;;;;;;13.93;11.70;;;;;;;2.26;100.00;103008.53;5125211;28;20032;-75
2023/01/28 09:06:08;;;;;;;13.23;11.33;;;;;;;2.12;100.00;103013.56;5126190;28;20420;-76
2023/01/28 09:08:39;;;;;;;14.73;12.13;;;;;;;2.16;100.00;103005.84;5126900;28;20398;-74
2023/01/28 09:11:11;;;;;;;14.80;11.40;;;;;;;2.08;100.00;103012.66;5125125;29;20031;-73
2023/01/28 09:13:42;;;;;;;15.40;11.73;;;;;;;2.18;100.00;103003.31;5127151;29;20709;-72
2023/01/28 09:16:13;;;;;;;14.83;11.80;;;;;;;2.09;100.00;103011.81;5128099;29;20462;-77
2023/01/28 09:18:45;;;;;;;16.30;12.57;;;;;;;2.33;100.00;103012.06;5127696;28;20363;-78
2023/01/28 09:21:16;;;;;;;14.33;12.63;;;;;;;2.35;100.00;103020.69;5128714;28;20135;-74
2023/01/28 09:23:48;;;;;;;13.17;11.77;;;;;;;2.32;100.00;103029.31;5127026;28;20362;-73
2023/01/28 09:26:20;;;;;;;14.17;12.00;;;;;;;2.20;100.00;103021.41;5128197;29;20471;-76
2023/01/28 09:28:51;;;;;;;16.43;12.87;;;;;;;2.39;100.00;103018.16;5127549;29;20114;-78
2023/01/28 09:31:23;;;;;;;14.60;11.97;;;;;;;2.21;100.00;103015.38;5132044;28;20624;-76
2023/01/28 09:33:56;;;;;;;15.67;12.07;;;;;;;2.08;100.00;103023.00;5128358;29;20024;-80
2023/01/28 09:36:27;;;;;;;14.87;12.33;;;;;;;2.00;100.00;103040.13;5128976;29;20030;-78
2023/01/28 09:38:58;;;;;;;15.23;12.13;;;;;;;1.84;100.00;103039.97;5129085;29;20040;-78
2023/01/28 09:41:39;;;;;;;15.07;12.50;;;;;;;1.80;100.00;103048.50;5129079;29;20547;-82
2023/01/28 09:44:19;;;;;;;15.73;13.13;;;;;;;1.91;100.00;103046.06;5129164;29;20837;-78
2023/01/28 09:46:51;;;;;;;15.00;12.50;;;;;;;2.08;100.00;103043.69;5125629;28;20412;-81
2023/01/28 09:49:35;;;;;;;14.03;12.30;;;;;;;2.00;100.00;103037.56;5127170;28;20055;-75
2023/01/28 09:52:14;;;;;;;15.55;13.00;;;;;;;2.05;100.00;103038.47;5115991;29;20390;-75
2023/01/28 09:54:54;;;;;;;13.93;12.40;;;;;;;2.21;100.00;103030.91;5123331;29;20038;-77
2023/01/28 09:57:39;;;;;;;14.20;12.40;;;;;;;2.23;100.00;103042.13;5126133;29;20032;-74
2023/01/28 10:00:17;;;;;;;15.35;12.05;;;;;;;2.21;100.00;103044.69;5122932;29;20136;-80
2023/01/28 10:02:54;;;;;;;16.10;12.40;;;;;;;2.35;100.00;103041.38;5118902;28;20051;-77
2023/01/28 10:05:43;;;;;;;14.03;12.53;;;;;;;2.30;100.00;103059.44;5127537;29;20481;-76
2023/01/28 10:08:41;;;;;;;13.77;11.33;;;;;;;2.31;100.00;103061.16;5122664;29;20371;-78
2023/01/28 10:11:26;;;;;;;14.13;12.20;;;;;;;2.28;100.00;103053.38;5128165;29;20028;-73
2023/01/28 10:14:12;;;;;;;13.75;11.48;;;;;;;2.43;100.00;103060.44;5123470;29;20057;-74
2023/01/28 10:16:50;;;;;;;14.87;12.03;;;;;;;2.36;100.00;103054.34;5127754;29;20111;-78
2023/01/28 10:19:30;;;;;;;13.33;11.93;;;;;;;2.37;100.00;103065.56;5126177;28;20032;-73
2023/01/28 10:22:06;;;;;;;12.50;11.20;;;;;;;2.16;100.00;103054.13;5127459;29;20499;-71
2023/01/28 10:24:43;;;;;;;13.10;10.97;;;;;;;2.18;100.00;103071.38;5128450;29;20090;-77
2023/01/28 10:27:20;;;;;;;12.83;11.50;;;;;;;2.22;100.00;103077.44;5127650;29;20034;-73
2023/01/28 10:29:52;;;;;;;12.80;11.40;;;;;;;2.21;100.00;103075.72;5120433;28;20071;-74
2023/01/28 10:32:30;;;;;;;13.43;12.03;;;;;;;2.19;100.00;103077.41;5114476;29;20114;-74
2023/01/28 10:35:02;;;;;;;12.40;11.10;;;;;;;2.31;100.00;103056.00;5107826;29;20037;-75
2023/01/28 10:37:36;;;;;;;13.27;11.37;;;;;;;2.36;100.00;103061.22;5110981;28;20616;-75
2023/01/28 10:40:17;;;;;;;12.17;10.87;;;;;;;2.40;100.00;103061.28;5122880;28;20501;-73
2023/01/28 10:42:48;;;;;;;11.73;9.73;;;;;;;2.22;100.00;103063.66;5108879;29;20288;-72
2023/01/28 10:45:28;;;;;;;12.20;10.90;;;;;;;2.34;100.00;103066.38;5108998;29;20717;-71
2023/01/28 10:48:02;;;;;;;12.23;11.00;;;;;;;2.31;100.00;103063.75;5118303;29;20062;-78
2023/01/28 10:50:36;;;;;;;12.60;10.63;;;;;;;2.24;100.00;103064.53;5123956;28;20131;-74
2023/01/28 10:53:07;;;;;;;11.70;10.10;;;;;;;2.27;100.00;103056.84;5123687;29;20415;-78
2023/01/28 10:55:55;;;;;;;12.60;10.10;;;;;;;2.38;100.00;103057.81;5126961;28;20031;-77
2023/01/28 10:58:30;;;;;;;10.73;9.33;;;;;;;2.31;100.00;103050.81;5126117;29;20047;-78
2023/01/28 11:01:06;;;;;;;12.07;10.30;;;;;;;2.20;100.00;103057.63;5128220;29;20474;-77
2023/01/28 11:03:39;;;;;;;11.03;9.83;;;;;;;2.11;100.00;103059.22;5125372;28;20380;-75
2023/01/28 11:06:29;;;;;;;12.03;10.30;;;;;;;2.14;100.00;103051.53;5127073;29;20047;-75
2023/01/28 11:09:00;;;;;;;12.37;10.70;;;;;;;2.15;100.00;103073.94;5122151;29;20502;-72
2023/01/28 11:11:32;;;;;;;11.50;10.07;;;;;;;2.05;100.00;103059.16;5117771;29;20170;-71
2023/01/28 11:14:03;;;;;;;13.10;10.37;;;;;;;1.90;100.00;103060.69;5116976;29;20048;-74
2023/01/28 11:16:39;;;;;;;13.43;10.83;;;;;;;2.13;100.00;103062.69;5109793;29;20064;-74
2023/01/28 11:19:10;;;;;;;12.70;10.90;;;;;;;1.92;100.00;103050.41;5110836;29;20141;-72
2023/01/28 11:21:50;;;;;;;12.47;11.07;;;;;;;1.93;100.00;103049.53;5119569;28;20073;-74
2023/01/28 11:24:26;;;;;;;13.97;11.17;;;;;;;1.66;100.00;103035.41;5118146;29;20051;-75
2023/01/28 11:27:11;;;;;;;13.43;11.47;;;;;;;1.66;100.00;103046.63;5118208;29;20028;-78
2023/01/28 11:29:43;;;;;;;13.30;11.43;;;;;;;1.80;100.00;103043.34;5140356;28;20144;-74
2023/01/28 11:32:19;;;;;;;20.27;12.50;;;;;;;1.97;100.00;103022.03;5127428;29;20050;-79
2023/01/28 11:34:53;;;;;;;17.30;11.03;;;;;;;1.98;100.00;103010.81;5120202;29;20106;-74
2023/01/28 11:37:27;;;;;;;13.07;10.70;;;;;;;2.13;100.00;103000.66;5120427;29;20035;-75
2023/01/28 11:40:23;;;;;;;14.83;11.70;;;;;;;2.26;100.00;103022.34;5124989;29;20043;-72
2023/01/28 11:42:56;;;;;;;13.90;10.77;;;;;;;2.34;100.00;103012.06;5115959;28;20134;-73
2023/01/28 11:45:42;;;;;;;12.53;10.33;;;;;;;2.33;100.00;103007.75;5132144;28;20030;-68
2023/01/28 11:48:40;;;;;;;15.23;11.40;;;;;;;2.37;100.00;103012.13;5115891;29;20032;-73
2023/01/28 11:51:41;;;;;;;14.03;11.17;;;;;;;2.48;100.00;103001.00;5115629;29;20677;-75
2023/01/28 11:54:39;;;;;;;12.47;10.40;;;;;;;2.33;100.00;102976.72;5117677;29;20032;-74
2023/01/28 11:57:16;;;;;;;13.33;10.90;;;;;;;2.25;100.00;102986.13;5117747;29;20028;-70
2023/01/28 12:00:16;;;;;;;13.87;10.80;;;;;;;2.44;100.00;102963.03;5114948;29;20032;-74
2023/01/28 12:03:26;;;;;;;14.30;12.00;;;;;;;2.28;100.00;102957.72;5115208;29;20677;-74
2023/01/28 12:06:19;;;;;;;15.87;12.63;;;;;;;2.20;100.00;102944.69;5127063;29;20039;-82
2023/01/28 12:09:12;;;;;;;14.77;11.57;;;;;;;2.07;100.00;102925.63;5121123;28;20177;-84
2023/01/28 12:15:02;;;;;;;14.17;10.97;;;;;;;2.11;100.00;102929.13;5131536;28;20418;-79